Lady Nur — 3FFE2 — position and weather

sailwx.info

Track history (hours):
 
Tides and Currents Weather Stations Pressure Air Temp Water Temp Dewpoint Dewpoint Depression Visibility Wind Speed Wind Dir Waves Ship Positions

Lady Nur

Last reported at 2016-Apr-18 23:09 UTC. Time now 2016-May-01 00:28 UTC.
Position N 37°50' E 015°58'.
Warning: this ship's position is 12 days out of date.

Length 82 m; draft 5.3 m.

Type: Cargo ship. MMSI: 373237000.

Date/timePositionNaut miles runAvg speedWind from/ knotsBaromVisibWave heightAir tempDewpointWater temp
2016-Apr-18 23:09N 37°50' E 015°58'7 7.9
2016-Apr-18 22:14N 37°51' E 015°49'6 8.4
2016-Apr-18 21:31N 37°53' E 015°42'7 7.6
2016-Apr-18 20:33N 37°59' E 015°36'8 8.2
2016-Apr-18 19:34N 38°07' E 015°35'7 6.8
2016-Apr-18 18:34N 38°14' E 015°36'6 6.3
2016-Apr-18 17:33N 38°19' E 015°40'6 6.5
2016-Apr-18 16:33N 38°24' E 015°35'8 7.6
2016-Apr-18 15:33N 38°29' E 015°28'7 7.5
2016-Apr-18 14:33N 38°34' E 015°20'24 8.0
2016-Apr-18 11:30N 38°49' E 014°55'8 8.1
2016-Apr-18 10:33N 38°52' E 014°47'50 8.0
2016-Apr-18 04:20N 39°19' E 013°52'6 7.8
2016-Apr-18 03:33N 39°22' E 013°46'8 7.9
2016-Apr-18 02:33N 39°26' E 013°37'8 7.9
2016-Apr-18 01:33N 39°30' E 013°28'9 7.9
2016-Apr-18 00:28N 39°35' E 013°19'7 7.9
2016-Apr-17 23:33N 39°38' E 013°11'8 7.9
2016-Apr-17 22:32N 39°43' E 013°02'8 7.8
2016-Apr-17 21:33N 39°47' E 012°54'68 8.2
2016-Apr-17 13:12N 40°23' E 011°38'5 7.6
2016-Apr-17 12:34N 40°26' E 011°32'7 7.2
2016-Apr-17 11:34N 40°29' E 011°24'7 6.9
2016-Apr-17 10:31N 40°33' E 011°16'319 7.4
2016-Apr-15 15:34N 43°11' E 005°04'7 7.2
2016-Apr-15 14:33N 43°17' E 004°59'7 6.8
2016-Apr-15 13:33N 43°23' E 004°56'4 3.2
2016-Apr-15 12:26N 43°24' E 004°51'0 0.0
2016-Apr-15 10:23N 43°24' E 004°51'0 0.0
2016-Apr-15 08:23N 43°24' E 004°51'0 0.0
2016-Apr-15 07:32N 43°24' E 004°51'0 0.0
2016-Apr-15 06:11N 43°24' E 004°51'0 0.0
2016-Apr-15 05:23N 43°24' E 004°51'0 0.0
2016-Apr-15 04:32N 43°24' E 004°51'0 0.0
2016-Apr-15 03:29N 43°24' E 004°51'0 0.0
2016-Apr-15 02:29N 43°24' E 004°51'0 0.0
2016-Apr-15 01:32N 43°24' E 004°51'0 0.0
2016-Apr-15 00:29N 43°24' E 004°51'0 0.0
2016-Apr-14 23:32N 43°24' E 004°51'0 0.0
2016-Apr-14 22:32N 43°24' E 004°51'0 0.0
2016-Apr-14 21:29N 43°24' E 004°51'0 0.0
2016-Apr-14 19:26N 43°24' E 004°51'0 0.0
2016-Apr-14 18:32N 43°24' E 004°51'0 0.0
2016-Apr-14 17:32N 43°24' E 004°51'1 0.6
2016-Apr-14 16:33N 43°24' E 004°51'3 2.7
2016-Apr-14 15:33N 43°25' E 004°55'0 0.0
2016-Apr-14 14:33N 43°25' E 004°55'0 0.0
2016-Apr-14 13:24N 43°25' E 004°55'0 0.1
2016-Apr-14 12:33N 43°25' E 004°55'0 0.0
2016-Apr-14 11:33N 43°25' E 004°55'0 0.1
2016-Apr-14 10:33N 43°25' E 004°55'7 7.0
2016-Apr-14 09:33N 43°19' E 004°60'12 8.5
2016-Apr-14 08:10N 43°07' E 005°02'5 8.5
2016-Apr-14 07:33N 43°02' E 005°02'27 8.7
2016-Apr-14 04:29N 42°35' E 005°04'10 8.6
2016-Apr-14 03:20N 42°25' E 005°06'10 8.9
2016-Apr-14 02:09N 42°15' E 005°08'  
Track history (hours):
 
Tides and Currents Weather Stations Pressure Air Temp Water Temp Dewpoint Dewpoint Depression Visibility Wind Speed Wind Dir Waves Ship Positions

Lady Nur

Last reported at 2016-Apr-18 23:09 UTC. Time now 2016-May-01 00:28 UTC.
Position N 37°50' E 015°58'.
Warning: this ship's position is 12 days out of date.

Length 82 m; draft 5.3 m.

Type: Cargo ship. MMSI: 373237000.

Date/timePositionNaut miles runAvg speedWind from/ knotsBaromVisibWave heightAir tempDewpointWater temp
2016-Apr-18 23:09N 37°50' E 015°58'7 7.9
2016-Apr-18 22:14N 37°51' E 015°49'6 8.4
2016-Apr-18 21:31N 37°53' E 015°42'7 7.6
2016-Apr-18 20:33N 37°59' E 015°36'8 8.2
2016-Apr-18 19:34N 38°07' E 015°35'7 6.8
2016-Apr-18 18:34N 38°14' E 015°36'6 6.3
2016-Apr-18 17:33N 38°19' E 015°40'6 6.5
2016-Apr-18 16:33N 38°24' E 015°35'8 7.6
2016-Apr-18 15:33N 38°29' E 015°28'7 7.5
2016-Apr-18 14:33N 38°34' E 015°20'24 8.0
2016-Apr-18 11:30N 38°49' E 014°55'8 8.1
2016-Apr-18 10:33N 38°52' E 014°47'50 8.0
2016-Apr-18 04:20N 39°19' E 013°52'6 7.8
2016-Apr-18 03:33N 39°22' E 013°46'8 7.9
2016-Apr-18 02:33N 39°26' E 013°37'8 7.9
2016-Apr-18 01:33N 39°30' E 013°28'9 7.9
2016-Apr-18 00:28N 39°35' E 013°19'7 7.9
2016-Apr-17 23:33N 39°38' E 013°11'8 7.9
2016-Apr-17 22:32N 39°43' E 013°02'8 7.8
2016-Apr-17 21:33N 39°47' E 012°54'68 8.2
2016-Apr-17 13:12N 40°23' E 011°38'5 7.6
2016-Apr-17 12:34N 40°26' E 011°32'7 7.2
2016-Apr-17 11:34N 40°29' E 011°24'7 6.9
2016-Apr-17 10:31N 40°33' E 011°16'319 7.4
2016-Apr-15 15:34N 43°11' E 005°04'7 7.2
2016-Apr-15 14:33N 43°17' E 004°59'7 6.8
2016-Apr-15 13:33N 43°23' E 004°56'4 3.2
2016-Apr-15 12:26N 43°24' E 004°51'0 0.0
2016-Apr-15 10:23N 43°24' E 004°51'0 0.0
2016-Apr-15 08:23N 43°24' E 004°51'0 0.0
2016-Apr-15 07:32N 43°24' E 004°51'0 0.0
2016-Apr-15 06:11N 43°24' E 004°51'0 0.0
2016-Apr-15 05:23N 43°24' E 004°51'0 0.0
2016-Apr-15 04:32N 43°24' E 004°51'0 0.0
2016-Apr-15 03:29N 43°24' E 004°51'0 0.0
2016-Apr-15 02:29N 43°24' E 004°51'0 0.0
2016-Apr-15 01:32N 43°24' E 004°51'0 0.0
2016-Apr-15 00:29N 43°24' E 004°51'0 0.0
2016-Apr-14 23:32N 43°24' E 004°51'0 0.0
2016-Apr-14 22:32N 43°24' E 004°51'0 0.0
2016-Apr-14 21:29N 43°24' E 004°51'0 0.0
2016-Apr-14 19:26N 43°24' E 004°51'0 0.0
2016-Apr-14 18:32N 43°24' E 004°51'0 0.0
2016-Apr-14 17:32N 43°24' E 004°51'1 0.6
2016-Apr-14 16:33N 43°24' E 004°51'3 2.7
2016-Apr-14 15:33N 43°25' E 004°55'0 0.0
2016-Apr-14 14:33N 43°25' E 004°55'0 0.0
2016-Apr-14 13:24N 43°25' E 004°55'0 0.1
2016-Apr-14 12:33N 43°25' E 004°55'0 0.0
2016-Apr-14 11:33N 43°25' E 004°55'0 0.1
2016-Apr-14 10:33N 43°25' E 004°55'7 7.0
2016-Apr-14 09:33N 43°19' E 004°60'12 8.5
2016-Apr-14 08:10N 43°07' E 005°02'5 8.5
2016-Apr-14 07:33N 43°02' E 005°02'27 8.7
2016-Apr-14 04:29N 42°35' E 005°04'10 8.6
2016-Apr-14 03:20N 42°25' E 005°06'10 8.9
2016-Apr-14 02:09N 42°15' E 005°08'  

Dump ship's entire track history